Accueil
Images satellite Prévisions 10 joursClimatMétéo marine Cyclones Foudre AéroportsFAQ Actualités A propos
Météo : Europe Afrique Amérique du Nord Amérique du Sud Asie Australie-Océanie Autres
Langues Contact

Florennes, Belgique

Base aérienne de Florennes

latitude: 50-14N, longitude: 004-39E, altitude: 279 m


METAR: EBFS 052255Z AUTO 25005KT 9999 NCD 14/12 Q1021 BLU
TAF: absent

Heure: 01:14 (23:14 UTC)

Observation

Le bulletin a été fait il y a 19 minutes, à 22:55 UTC
Vent 5 kt de ouest/sud-ouest
Température 14°C
Humidité 88%
Pression 1021 hPa
Visibilité 10 km ou plus

Changer d'unités
Les informations qui figurent sur ce site font l'objet d'une clause de non-responsabilité
Météo : Europe Afrique Amérique du Nord Amérique du Sud Asie Australie-Océanie Autres
Images satellite Prévisions 10 joursClimatMétéo marine Cyclones Foudre AéroportsFAQ Langues Contact Actualités A propos